Desert Springs, Nevada Weather observations

Data are for 10 minute period ending at time listed.
 Day   Time    Ave.   Ave.  Ave.  Vector   Max.   Total    Solar   
  of    of     Air    Rel.  Wind   Wind    Wind  Precip.   Rad.    
Year   Day     Temp.  Hum.  Speed  Dir.    Gust                    
2014   (PST)    F      %     mph   deg.    mph     in.     W/m2    
------------------------------------------------------------------- 
 210    0:00   70.0    38   12.0   275     16.0    1.98       0  
 210    1:00   72.0    32   16.0   291     24.0    1.98       0  
 210    2:00   71.0    33   15.0   285     24.0    1.98       0  
 210    3:00   69.0    35   12.0   287     19.0    1.98       0  
 210    4:00   69.0    35    3.0   265     15.0    1.98       0  
 210    5:00   68.0    35   13.0   279     16.0    1.98       0  
 210    6:00   69.0    34    7.0   268     14.0    1.98       7  
 210    7:00   70.0    32    2.0   163     10.0    1.98      58  
 210    8:00   75.0    30    4.0   280      9.0    1.98     204  
 210    9:00   81.0    21    3.0    12      8.0    1.98     567  
 210   10:00   84.0    19    4.0   308     12.0    1.98     655  
 210   11:00   86.0    17   14.0   346     21.0    1.98     827  
 210   12:00   88.0    15   12.0   317     21.0    1.98     899  
 210   13:00   88.0    16   11.0   340     25.0    1.98     564  
 210   14:00   88.0    15   10.0   320     29.0    1.98     717  
 210   15:00   87.0    15   14.0   344     29.0    1.98     614  
 210   16:00   89.0    14   13.0   328     30.0    1.98     727  
 210   17:00   89.0    14    4.0     5     18.0    1.98     586  
 210   18:00   86.0    16    5.0    36     11.0    1.98     241  
 210   19:00   80.0    24   11.0   189     24.0    1.98      33  
 210   20:00   79.0    24    3.0   276     22.0    1.98       5  
 210   21:00   76.0    27    8.0   273     10.0    1.98       0  
 210   22:00   74.0    30   13.0   269     18.0    1.98       0  
 210   23:00   73.0    31    0.0   149     16.0    1.98       0  

Return to Desert Springs, Nevada graphs page.


Western Regional Climate Center,wrcc@dri.edu